createdAt,value
2017-04-13T00:00:18.485Z,1005.51
2017-04-13T00:00:44.568Z,1005.51
2017-04-13T00:01:10.650Z,1005.54
2017-04-13T00:01:36.732Z,1005.56
2017-04-13T00:02:02.812Z,1005.57
2017-04-13T00:02:28.896Z,1005.56
2017-04-13T00:02:54.977Z,1005.62
2017-04-13T00:03:21.083Z,1005.63
2017-04-13T00:03:47.208Z,1005.59
2017-04-13T00:04:13.292Z,1005.53
2017-04-13T00:04:39.373Z,1005.6
2017-04-13T00:05:05.456Z,1005.63
2017-04-13T00:05:31.536Z,1005.61
2017-04-13T00:05:57.618Z,1005.61
2017-04-13T00:06:23.701Z,1005.65
2017-04-13T00:06:49.806Z,1005.65
2017-04-13T00:07:15.889Z,1005.6
2017-04-13T00:07:41.993Z,1005.58
2017-04-13T00:08:08.097Z,1005.61
2017-04-13T00:08:34.183Z,1005.58
2017-04-13T00:09:00.307Z,1005.62
2017-04-13T00:09:26.410Z,1005.59
2017-04-13T00:09:52.518Z,1005.58
2017-04-13T00:10:18.600Z,1005.56
2017-04-13T00:10:44.680Z,1005.58
2017-04-13T00:11:10.763Z,1005.6
2017-04-13T00:11:36.845Z,1005.58
2017-04-13T00:12:02.927Z,1005.59
2017-04-13T00:12:29.033Z,1005.58
2017-04-13T00:12:55.134Z,1005.61
2017-04-13T00:13:21.216Z,1005.55
2017-04-13T00:13:47.319Z,1005.51
2017-04-13T00:14:13.424Z,1005.51
2017-04-13T00:14:39.530Z,1005.56
2017-04-13T00:15:05.634Z,1005.53
2017-04-13T00:15:31.717Z,1005.55
2017-04-13T00:15:57.797Z,1005.53
2017-04-13T00:16:24.028Z,1005.47
2017-04-13T00:16:50.110Z,1005.45
2017-04-13T00:17:16.237Z,1005.54
2017-04-13T00:17:42.343Z,1005.5
2017-04-13T00:18:08.438Z,1005.51
2017-04-13T00:18:34.524Z,1005.53
2017-04-13T00:19:00.654Z,1005.47
2017-04-13T00:19:26.739Z,1005.51
2017-04-13T00:19:52.823Z,1005.48
2017-04-13T00:20:18.932Z,1005.51
2017-04-13T00:20:45.033Z,1005.47
2017-04-13T00:21:11.262Z,1005.48
2017-04-13T00:21:37.344Z,1005.48
2017-04-13T00:22:03.912Z,1005.47
2017-04-13T00:22:30.017Z,1005.49
2017-04-13T00:22:56.096Z,1005.54
2017-04-13T00:23:22.182Z,1005.53
2017-04-13T00:23:48.723Z,1005.51
2017-04-13T00:24:14.828Z,1005.56
2017-04-13T00:24:40.936Z,1005.55
2017-04-13T00:25:07.020Z,1005.51
2017-04-13T00:25:33.126Z,1005.52
2017-04-13T00:25:59.231Z,1005.55
2017-04-13T00:26:25.337Z,1005.54
2017-04-13T00:26:51.462Z,1005.51
2017-04-13T00:27:17.566Z,1005.53
2017-04-13T00:27:43.695Z,1005.54
2017-04-13T00:28:09.845Z,1005.55
2017-04-13T00:28:35.929Z,1005.55
2017-04-13T00:29:02.057Z,1005.57
2017-04-13T00:29:28.184Z,1005.55
2017-04-13T00:29:54.291Z,1005.59
2017-04-13T00:30:20.366Z,1005.59
2017-04-13T00:30:46.476Z,1005.61
2017-04-13T00:31:12.587Z,1005.55
2017-04-13T00:31:38.668Z,1005.57
2017-04-13T00:32:04.848Z,1005.57
2017-04-13T00:32:30.930Z,1005.48
2017-04-13T00:32:57.081Z,1005.54
2017-04-13T00:33:23.188Z,1005.56
2017-04-13T00:33:49.341Z,1005.56
2017-04-13T00:34:15.421Z,1005.54
2017-04-13T00:34:41.527Z,1005.54
2017-04-13T00:35:07.631Z,1005.56
2017-04-13T00:35:33.712Z,1005.56
2017-04-13T00:35:59.794Z,1005.55
2017-04-13T00:36:25.879Z,1005.54
2017-04-13T00:36:51.960Z,1005.54
2017-04-13T00:37:18.040Z,1005.51
2017-04-13T00:37:44.122Z,1005.5
2017-04-13T00:38:10.205Z,1005.52
2017-04-13T00:38:36.312Z,1005.53
2017-04-13T00:39:02.438Z,1005.51
2017-04-13T00:39:28.522Z,1005.49
2017-04-13T00:39:54.625Z,1005.51
2017-04-13T00:40:20.832Z,1005.47
2017-04-13T00:40:46.915Z,1005.49
2017-04-13T00:41:13.060Z,1005.49
2017-04-13T00:41:39.314Z,1005.45
2017-04-13T00:42:05.421Z,1005.42
2017-04-13T00:42:31.502Z,1005.44
2017-04-13T00:42:57.633Z,1005.39
2017-04-13T00:43:23.741Z,1005.4
2017-04-13T00:43:49.867Z,1005.36
2017-04-13T00:44:15.969Z,1005.37
2017-04-13T00:44:42.050Z,1005.37
2017-04-13T00:45:08.157Z,1005.38
2017-04-13T00:45:34.240Z,1005.42
2017-04-13T00:46:00.323Z,1005.36
2017-04-13T00:46:26.406Z,1005.34
2017-04-13T00:46:52.510Z,1005.38
2017-04-13T00:47:18.615Z,1005.42
2017-04-13T00:47:44.723Z,1005.38
2017-04-13T00:48:10.902Z,1005.41
2017-04-13T00:48:37.005Z,1005.38
2017-04-13T00:49:03.113Z,1005.39
2017-04-13T00:49:29.226Z,1005.39
2017-04-13T00:49:55.303Z,1005.37
2017-04-13T00:50:21.386Z,1005.37
2017-04-13T00:50:47.468Z,1005.39
2017-04-13T00:51:13.546Z,1005.37
2017-04-13T00:51:39.653Z,1005.34
2017-04-13T00:52:05.759Z,1005.39
2017-04-13T00:52:31.866Z,1005.35
2017-04-13T00:52:58.045Z,1005.34
2017-04-13T00:53:24.128Z,1005.34
2017-04-13T00:53:50.333Z,1005.36
2017-04-13T00:54:16.412Z,1005.38
2017-04-13T00:54:42.541Z,1005.4
2017-04-13T00:55:08.645Z,1005.37
2017-04-13T00:55:34.727Z,1005.38
2017-04-13T00:56:00.806Z,1005.39
2017-04-13T00:56:26.890Z,1005.4
2017-04-13T00:56:52.971Z,1005.41
2017-04-13T00:57:19.056Z,1005.36
2017-04-13T00:57:45.161Z,1005.41
2017-04-13T00:58:11.266Z,1005.36
2017-04-13T00:58:37.371Z,1005.4
2017-04-13T00:59:03.500Z,1005.37
2017-04-13T00:59:29.608Z,1005.4
2017-04-13T00:59:55.690Z,1005.39
2017-04-13T01:00:21.775Z,1005.38
2017-04-13T01:00:47.856Z,1005.39
2017-04-13T01:01:13.958Z,1005.4
2017-04-13T01:01:40.039Z,1005.4
2017-04-13T01:02:06.126Z,1005.37
2017-04-13T01:02:32.210Z,1005.35
2017-04-13T01:02:58.293Z,1005.36
2017-04-13T01:03:24.398Z,1005.37
2017-04-13T01:03:50.480Z,1005.37
2017-04-13T01:04:16.563Z,1005.36
2017-04-13T01:04:42.648Z,1005.35
2017-04-13T01:05:08.732Z,1005.36
2017-04-13T01:05:34.838Z,1005.36
2017-04-13T01:06:00.946Z,1005.35
2017-04-13T01:06:27.027Z,1005.36
2017-04-13T01:06:53.131Z,1005.37
2017-04-13T01:07:19.214Z,1005.36
2017-04-13T01:07:45.296Z,1005.36
2017-04-13T01:08:11.378Z,1005.34
2017-04-13T01:08:37.458Z,1005.35
2017-04-13T01:09:03.564Z,1005.33
2017-04-13T01:09:29.647Z,1005.3
2017-04-13T01:09:55.727Z,1005.35
2017-04-13T01:10:21.831Z,1005.29
2017-04-13T01:10:47.934Z,1005.28
2017-04-13T01:11:14.019Z,1005.32
2017-04-13T01:11:40.101Z,1005.31
2017-04-13T01:12:06.208Z,1005.36
2017-04-13T01:12:32.340Z,1005.29
2017-04-13T01:12:58.423Z,1005.32
2017-04-13T01:13:24.506Z,1005.27
2017-04-13T01:13:50.587Z,1005.3
2017-04-13T01:14:16.670Z,1005.31
2017-04-13T01:14:42.752Z,1005.25
2017-04-13T01:15:08.834Z,1005.31
2017-04-13T01:15:34.916Z,1005.27
2017-04-13T01:16:00.997Z,1005.32
2017-04-13T01:16:27.081Z,1005.33
2017-04-13T01:16:53.166Z,1005.31
2017-04-13T01:17:19.246Z,1005.33
2017-04-13T01:17:45.326Z,1005.32
2017-04-13T01:18:11.410Z,1005.34
2017-04-13T01:18:37.491Z,1005.28
2017-04-13T01:19:03.573Z,1005.33
2017-04-13T01:19:29.676Z,1005.32
2017-04-13T01:19:55.758Z,1005.31
2017-04-13T01:20:21.865Z,1005.32
2017-04-13T01:20:47.968Z,1005.32
2017-04-13T01:21:14.049Z,1005.32
2017-04-13T01:21:40.154Z,1005.3
2017-04-13T01:22:06.259Z,1005.33
2017-04-13T01:22:32.344Z,1005.27
2017-04-13T01:22:58.444Z,1005.29
2017-04-13T01:23:24.573Z,1005.32
2017-04-13T01:23:50.827Z,1005.3
2017-04-13T01:24:16.908Z,1005.27
2017-04-13T01:24:43.059Z,1005.26
2017-04-13T01:25:09.140Z,1005.26
2017-04-13T01:25:35.224Z,1005.27
2017-04-13T01:26:01.305Z,1005.28
2017-04-13T01:26:27.387Z,1005.26
2017-04-13T01:26:53.470Z,1005.3
2017-04-13T01:27:19.554Z,1005.3
2017-04-13T01:27:45.637Z,1005.29
2017-04-13T01:28:11.743Z,1005.28
2017-04-13T01:28:37.872Z,1005.28
2017-04-13T01:29:03.975Z,1005.28
2017-04-13T01:29:30.079Z,1005.29
2017-04-13T01:29:56.186Z,1005.3
2017-04-13T01:30:22.345Z,1005.27
2017-04-13T01:30:48.426Z,1005.3
2017-04-13T01:31:14.507Z,1005.26
2017-04-13T01:31:40.588Z,1005.29
2017-04-13T01:32:06.714Z,1005.3
2017-04-13T01:32:32.816Z,1005.29
2017-04-13T01:32:58.900Z,1005.32
2017-04-13T01:33:25.031Z,1005.29
2017-04-13T01:33:51.138Z,1005.32
2017-04-13T01:34:17.242Z,1005.34
2017-04-13T01:34:43.345Z,1005.32
2017-04-13T01:35:09.447Z,1005.35
2017-04-13T01:35:35.525Z,1005.32
2017-04-13T01:36:01.610Z,1005.37
2017-04-13T01:36:27.715Z,1005.35
2017-04-13T01:36:53.794Z,1005.43
2017-04-13T01:37:19.877Z,1005.37
2017-04-13T01:37:46.007Z,1005.38
2017-04-13T01:38:12.113Z,1005.39
2017-04-13T01:38:38.216Z,1005.38
2017-04-13T01:39:04.344Z,1005.39
2017-04-13T01:39:30.464Z,1005.39
2017-04-13T01:39:56.566Z,1005.37
2017-04-13T01:40:22.719Z,1005.37
2017-04-13T01:40:48.802Z,1005.35
2017-04-13T01:41:14.883Z,1005.39
2017-04-13T01:41:41.003Z,1005.36
2017-04-13T01:42:07.093Z,1005.34
2017-04-13T01:42:33.173Z,1005.31
2017-04-13T01:42:59.280Z,1005.36
2017-04-13T01:43:25.361Z,1005.33
2017-04-13T01:43:51.441Z,1005.36
2017-04-13T01:44:17.575Z,1005.36
2017-04-13T01:44:43.655Z,1005.37
2017-04-13T01:45:09.735Z,1005.39
2017-04-13T01:45:35.817Z,1005.37
2017-04-13T01:46:01.894Z,1005.36
2017-04-13T01:46:27.981Z,1005.37
2017-04-13T01:46:54.064Z,1005.35
2017-04-13T01:47:20.146Z,1005.34
2017-04-13T01:47:46.249Z,1005.37
2017-04-13T01:48:12.330Z,1005.32
2017-04-13T01:48:38.416Z,1005.33
2017-04-13T01:49:04.522Z,1005.36
2017-04-13T01:49:30.628Z,1005.4
2017-04-13T01:49:56.710Z,1005.33
2017-04-13T01:50:22.812Z,1005.34
2017-04-13T01:50:48.917Z,1005.33
2017-04-13T01:51:15.001Z,1005.38
2017-04-13T01:51:41.084Z,1005.35
2017-04-13T01:52:07.190Z,1005.37
2017-04-13T01:52:33.295Z,1005.39
2017-04-13T01:52:59.422Z,1005.38
2017-04-13T01:53:25.529Z,1005.37
2017-04-13T01:53:51.657Z,1005.38
2017-04-13T01:54:17.758Z,1005.4
2017-04-13T01:54:43.864Z,1005.37
2017-04-13T01:55:09.992Z,1005.37
2017-04-13T01:55:36.099Z,1005.39
2017-04-13T01:56:02.182Z,1005.4
2017-04-13T01:56:28.262Z,1005.43
2017-04-13T01:56:54.342Z,1005.43
2017-04-13T01:57:20.451Z,1005.43
2017-04-13T01:57:46.602Z,1005.34
2017-04-13T01:58:12.711Z,1005.43
2017-04-13T01:58:38.819Z,1005.4
2017-04-13T01:59:04.898Z,1005.41
2017-04-13T01:59:31.005Z,1005.4
2017-04-13T01:59:57.156Z,1005.41
2017-04-13T02:00:23.235Z,1005.38
2017-04-13T02:00:49.318Z,1005.41
2017-04-13T02:01:15.402Z,1005.39
2017-04-13T02:01:41.482Z,1005.36
2017-04-13T02:02:07.564Z,1005.32
2017-04-13T02:02:33.646Z,1005.36
2017-04-13T02:02:59.728Z,1005.35
2017-04-13T02:03:25.811Z,1005.35
2017-04-13T02:03:51.891Z,1005.37
2017-04-13T02:04:18.025Z,1005.36
2017-04-13T02:04:44.106Z,1005.36
2017-04-13T02:05:10.362Z,1005.39
2017-04-13T02:05:36.454Z,1005.36
2017-04-13T02:06:02.553Z,1005.39
2017-04-13T02:06:28.635Z,1005.38
2017-04-13T02:06:54.744Z,1005.39
2017-04-13T02:07:20.848Z,1005.42
2017-04-13T02:07:46.954Z,1005.42
2017-04-13T02:08:13.035Z,1005.44
2017-04-13T02:08:39.162Z,1005.43
2017-04-13T02:09:05.243Z,1005.4
2017-04-13T02:09:31.349Z,1005.43
2017-04-13T02:09:57.430Z,1005.4
2017-04-13T02:10:23.511Z,1005.4
2017-04-13T02:10:49.615Z,1005.45
2017-04-13T02:11:15.718Z,1005.45
2017-04-13T02:11:41.798Z,1005.46
2017-04-13T02:12:07.926Z,1005.39
2017-04-13T02:12:34.034Z,1005.38
2017-04-13T02:13:00.186Z,1005.39
2017-04-13T02:13:26.318Z,1005.42
2017-04-13T02:13:52.401Z,1005.42
2017-04-13T02:14:18.506Z,1005.46
2017-04-13T02:14:44.610Z,1005.46
2017-04-13T02:15:10.740Z,1005.42
2017-04-13T02:15:36.841Z,1005.4
2017-04-13T02:16:02.921Z,1005.43
2017-04-13T02:16:29.050Z,1005.44
2017-04-13T02:16:55.182Z,1005.41
2017-04-13T02:17:21.265Z,1005.42
2017-04-13T02:17:47.348Z,1005.43
2017-04-13T02:18:13.477Z,1005.46
2017-04-13T02:18:39.585Z,1005.45
2017-04-13T02:19:05.714Z,1005.43
2017-04-13T02:19:31.796Z,1005.38
2017-04-13T02:19:57.950Z,1005.43
2017-04-13T02:20:24.076Z,1005.42
2017-04-13T02:20:50.205Z,1005.43
2017-04-13T02:21:16.287Z,1005.42
2017-04-13T02:21:42.368Z,1005.42
2017-04-13T02:22:08.496Z,1005.43
2017-04-13T02:22:34.578Z,1005.46
2017-04-13T02:23:00.684Z,1005.46
2017-04-13T02:23:26.807Z,1005.45
2017-04-13T02:23:52.887Z,1005.45
2017-04-13T02:24:19.017Z,1005.45
2017-04-13T02:24:45.199Z,1005.43
2017-04-13T02:25:11.284Z,1005.44
2017-04-13T02:25:37.364Z,1005.45
2017-04-13T02:26:03.547Z,1005.42
2017-04-13T02:26:29.633Z,1005.43
2017-04-13T02:26:55.708Z,1005.42
2017-04-13T02:27:21.814Z,1005.47
2017-04-13T02:27:47.897Z,1005.47
2017-04-13T02:28:14.002Z,1005.45
2017-04-13T02:28:40.104Z,1005.49
2017-04-13T02:29:06.199Z,1005.5
2017-04-13T02:29:32.302Z,1005.49
2017-04-13T02:29:58.383Z,1005.49
2017-04-13T02:30:24.510Z,1005.45
2017-04-13T02:30:50.595Z,1005.47
2017-04-13T02:31:16.726Z,1005.45
2017-04-13T02:31:42.854Z,1005.49
2017-04-13T02:32:08.964Z,1005.48
2017-04-13T02:32:35.071Z,1005.47
2017-04-13T02:33:01.174Z,1005.47
2017-04-13T02:33:27.305Z,1005.47
2017-04-13T02:33:53.385Z,1005.5
2017-04-13T02:34:19.468Z,1005.47
2017-04-13T02:34:45.571Z,1005.5
2017-04-13T02:35:11.654Z,1005.5
2017-04-13T02:35:37.760Z,1005.49
2017-04-13T02:36:03.841Z,1005.49
2017-04-13T02:36:29.944Z,1005.49
2017-04-13T02:36:56.026Z,1005.48
2017-04-13T02:37:22.110Z,1005.52
2017-04-13T02:37:48.215Z,1005.51
2017-04-13T02:38:14.294Z,1005.51
2017-04-13T02:38:40.373Z,1005.49
2017-04-13T02:39:06.458Z,1005.5
2017-04-13T02:39:32.548Z,1005.48
2017-04-13T02:39:58.631Z,1005.5
2017-04-13T02:40:24.714Z,1005.5
2017-04-13T02:40:50.795Z,1005.48
2017-04-13T02:41:16.876Z,1005.52
2017-04-13T02:41:42.982Z,1005.49
2017-04-13T02:42:09.066Z,1005.49
2017-04-13T02:42:35.149Z,1005.47
2017-04-13T02:43:01.232Z,1005.45
2017-04-13T02:43:27.313Z,1005.46
2017-04-13T02:43:53.438Z,1005.45
2017-04-13T02:44:19.524Z,1005.45
2017-04-13T02:44:45.631Z,1005.47
2017-04-13T02:45:11.715Z,1005.44
2017-04-13T02:45:37.799Z,1005.47
2017-04-13T02:46:03.921Z,1005.44
2017-04-13T02:46:30.005Z,1005.43
2017-04-13T02:46:56.110Z,1005.42
2017-04-13T02:47:22.218Z,1005.42
2017-04-13T02:47:48.307Z,1005.42
2017-04-13T02:48:14.415Z,1005.41
2017-04-13T02:48:40.497Z,1005.42
2017-04-13T02:49:06.604Z,1005.41
2017-04-13T02:49:32.708Z,1005.41
2017-04-13T02:49:58.834Z,1005.4
2017-04-13T02:50:24.913Z,1005.38
2017-04-13T02:50:50.997Z,1005.4
2017-04-13T02:51:17.126Z,1005.37
2017-04-13T02:51:43.208Z,1005.39
2017-04-13T02:52:09.313Z,1005.4
2017-04-13T02:52:35.419Z,1005.34
2017-04-13T02:53:01.537Z,1005.36
2017-04-13T02:53:27.609Z,1005.31
2017-04-13T02:53:53.687Z,1005.36
2017-04-13T02:54:19.767Z,1005.35
2017-04-13T02:54:45.847Z,1005.32
2017-04-13T02:55:11.931Z,1005.32
2017-04-13T02:55:38.036Z,1005.36
2017-04-13T02:56:04.112Z,1005.33
2017-04-13T02:56:30.219Z,1005.36
2017-04-13T02:56:56.302Z,1005.4
2017-04-13T02:57:22.386Z,1005.4
2017-04-13T02:57:48.464Z,1005.37
2017-04-13T02:58:14.545Z,1005.36
2017-04-13T02:58:40.628Z,1005.34
2017-04-13T02:59:06.730Z,1005.37
2017-04-13T02:59:32.838Z,1005.4
2017-04-13T02:59:58.945Z,1005.33
2017-04-13T03:00:25.050Z,1005.34
2017-04-13T03:00:51.136Z,1005.33
2017-04-13T03:01:17.218Z,1005.35
2017-04-13T03:01:43.299Z,1005.38
2017-04-13T03:02:09.380Z,1005.35
2017-04-13T03:02:35.488Z,1005.36
2017-04-13T03:03:01.567Z,1005.37
2017-04-13T03:03:27.648Z,1005.35
2017-04-13T03:03:53.733Z,1005.36
2017-04-13T03:04:19.816Z,1005.36
2017-04-13T03:04:46.016Z,1005.35
2017-04-13T03:05:12.124Z,1005.42
2017-04-13T03:05:38.229Z,1005.35
2017-04-13T03:06:04.311Z,1005.37
2017-04-13T03:06:30.393Z,1005.41
2017-04-13T03:06:56.497Z,1005.41
2017-04-13T03:07:22.603Z,1005.39
2017-04-13T03:07:48.710Z,1005.39
2017-04-13T03:08:14.815Z,1005.41
2017-04-13T03:08:40.898Z,1005.4
2017-04-13T03:09:06.981Z,1005.38
2017-04-13T03:09:33.061Z,1005.38
2017-04-13T03:09:59.166Z,1005.44
2017-04-13T03:10:25.250Z,1005.42
2017-04-13T03:10:51.357Z,1005.38
2017-04-13T03:11:17.483Z,1005.39
2017-04-13T03:11:43.565Z,1005.4
2017-04-13T03:12:09.646Z,1005.39
2017-04-13T03:12:35.728Z,1005.39
2017-04-13T03:13:01.858Z,1005.37
2017-04-13T03:13:27.966Z,1005.38
2017-04-13T03:13:54.095Z,1005.39
2017-04-13T03:14:20.198Z,1005.32
2017-04-13T03:14:46.304Z,1005.32
2017-04-13T03:15:12.406Z,1005.37
2017-04-13T03:15:38.490Z,1005.35
2017-04-13T03:16:04.617Z,1005.32
2017-04-13T03:16:30.723Z,1005.31
2017-04-13T03:16:56.807Z,1005.33
2017-04-13T03:17:22.933Z,1005.33
2017-04-13T03:17:49.062Z,1005.36
2017-04-13T03:18:15.165Z,1005.31
2017-04-13T03:18:41.290Z,1005.34
2017-04-13T03:19:07.419Z,1005.35
2017-04-13T03:19:33.623Z,1005.34
2017-04-13T03:19:59.730Z,1005.37
2017-04-13T03:20:25.867Z,1005.34
2017-04-13T03:20:52.021Z,1005.38
2017-04-13T03:21:18.128Z,1005.32
2017-04-13T03:21:44.233Z,1005.37
2017-04-13T03:22:10.364Z,1005.37
2017-04-13T03:22:36.444Z,1005.39
2017-04-13T03:23:02.549Z,1005.39
2017-04-13T03:23:28.676Z,1005.39
2017-04-13T03:23:54.831Z,1005.37
2017-04-13T03:24:20.938Z,1005.39
2017-04-13T03:24:47.040Z,1005.36
2017-04-13T03:25:13.129Z,1005.38
2017-04-13T03:25:39.253Z,1005.33
2017-04-13T03:26:05.357Z,1005.37
2017-04-13T03:26:31.593Z,1005.37
2017-04-13T03:26:57.675Z,1005.35
2017-04-13T03:27:23.802Z,1005.35
2017-04-13T03:27:49.906Z,1005.35
2017-04-13T03:28:16.014Z,1005.39
2017-04-13T03:28:42.121Z,1005.38
2017-04-13T03:29:08.271Z,1005.42
2017-04-13T03:29:34.377Z,1005.43
2017-04-13T03:30:00.507Z,1005.42
2017-04-13T03:30:26.589Z,1005.41
2017-04-13T03:30:52.672Z,1005.44
2017-04-13T03:31:18.750Z,1005.44
2017-04-13T03:31:44.833Z,1005.42
2017-04-13T03:32:10.916Z,1005.41
2017-04-13T03:32:36.999Z,1005.41
2017-04-13T03:33:03.080Z,1005.42
2017-04-13T03:33:29.184Z,1005.41
2017-04-13T03:33:55.289Z,1005.41
2017-04-13T03:34:21.397Z,1005.38
2017-04-13T03:34:47.502Z,1005.4
2017-04-13T03:35:13.583Z,1005.43
2017-04-13T03:35:39.668Z,1005.41
2017-04-13T03:36:05.771Z,1005.4
2017-04-13T03:36:31.853Z,1005.42
2017-04-13T03:36:57.938Z,1005.41
2017-04-13T03:37:24.018Z,1005.37
2017-04-13T03:37:50.123Z,1005.4
2017-04-13T03:38:16.328Z,1005.36
2017-04-13T03:38:42.411Z,1005.4
2017-04-13T03:39:08.493Z,1005.4
2017-04-13T03:39:34.575Z,1005.39
2017-04-13T03:40:00.678Z,1005.39
2017-04-13T03:40:26.763Z,1005.39
2017-04-13T03:40:52.846Z,1005.37
2017-04-13T03:41:18.925Z,1005.37
2017-04-13T03:41:45.028Z,1005.34
2017-04-13T03:42:11.111Z,1005.33
2017-04-13T03:42:37.196Z,1005.32
2017-04-13T03:43:03.316Z,1005.34
2017-04-13T03:43:29.380Z,1005.36
2017-04-13T03:43:55.462Z,1005.33
2017-04-13T03:44:21.544Z,1005.34
2017-04-13T03:44:47.650Z,1005.38
2017-04-13T03:45:13.734Z,1005.33
2017-04-13T03:45:39.815Z,1005.35
2017-04-13T03:46:05.896Z,1005.3
2017-04-13T03:46:32.000Z,1005.31
2017-04-13T03:46:58.083Z,1005.34
2017-04-13T03:47:24.190Z,1005.39
2017-04-13T03:47:50.271Z,1005.34
2017-04-13T03:48:16.352Z,1005.38
2017-04-13T03:48:42.436Z,1005.35
2017-04-13T03:49:08.543Z,1005.34
2017-04-13T03:49:34.695Z,1005.37
2017-04-13T03:50:00.778Z,1005.31
2017-04-13T03:50:26.862Z,1005.35
2017-04-13T03:50:52.965Z,1005.33
2017-04-13T03:51:19.048Z,1005.29
2017-04-13T03:51:45.127Z,1005.33
2017-04-13T03:52:11.281Z,1005.32
2017-04-13T03:52:37.386Z,1005.33
2017-04-13T03:53:03.540Z,1005.32
2017-04-13T03:53:29.648Z,1005.35
2017-04-13T03:53:55.730Z,1005.32
2017-04-13T03:54:21.861Z,1005.33
2017-04-13T03:54:47.965Z,1005.32
2017-04-13T03:55:14.094Z,1005.32
2017-04-13T03:55:40.200Z,1005.32
2017-04-13T03:56:06.326Z,1005.34
2017-04-13T03:56:32.408Z,1005.29
2017-04-13T03:56:58.491Z,1005.31
2017-04-13T03:57:24.574Z,1005.34
2017-04-13T03:57:50.680Z,1005.32
2017-04-13T03:58:16.763Z,1005.32
2017-04-13T03:58:42.867Z,1005.34
2017-04-13T03:59:09.016Z,1005.32
2017-04-13T03:59:35.273Z,1005.32
2017-04-13T04:00:01.730Z,1005.33
2017-04-13T04:00:27.835Z,1005.32
2017-04-13T04:00:53.983Z,1005.31
2017-04-13T04:01:20.018Z,1005.31
2017-04-13T04:01:46.101Z,1005.31
2017-04-13T04:02:12.207Z,1005.3
2017-04-13T04:02:38.288Z,1005.31
2017-04-13T04:03:04.368Z,1005.29
2017-04-13T04:03:30.452Z,1005.24
2017-04-13T04:03:56.535Z,1005.27
2017-04-13T04:04:22.614Z,1005.33
2017-04-13T04:04:48.721Z,1005.36
2017-04-13T04:05:14.804Z,1005.35
2017-04-13T04:05:40.885Z,1005.36
2017-04-13T04:06:06.996Z,1005.33
2017-04-13T04:06:33.074Z,1005.37
2017-04-13T04:06:59.205Z,1005.32
2017-04-13T04:07:25.283Z,1005.34
2017-04-13T04:07:51.365Z,1005.35
2017-04-13T04:08:17.550Z,1005.32
2017-04-13T04:08:43.632Z,1005.34
2017-04-13T04:09:09.713Z,1005.31
2017-04-13T04:09:35.798Z,1005.3
2017-04-13T04:10:01.880Z,1005.33
2017-04-13T04:10:27.985Z,1005.31
2017-04-13T04:10:54.065Z,1005.29
2017-04-13T04:11:20.145Z,1005.29
2017-04-13T04:11:46.329Z,1005.31
2017-04-13T04:12:12.433Z,1005.29
2017-04-13T04:12:38.514Z,1005.31
2017-04-13T04:13:04.599Z,1005.3
2017-04-13T04:13:30.677Z,1005.33
2017-04-13T04:13:56.807Z,1005.29
2017-04-13T04:14:22.887Z,1005.3
2017-04-13T04:14:48.993Z,1005.26
2017-04-13T04:15:15.076Z,1005.33
2017-04-13T04:15:41.211Z,1005.27
2017-04-13T04:16:07.295Z,1005.29
2017-04-13T04:16:33.377Z,1005.31
2017-04-13T04:16:59.478Z,1005.32
2017-04-13T04:17:25.584Z,1005.34
2017-04-13T04:17:51.687Z,1005.32
2017-04-13T04:18:17.794Z,1005.32
2017-04-13T04:18:43.876Z,1005.33
2017-04-13T04:19:10.006Z,1005.35
2017-04-13T04:19:36.094Z,1005.36
2017-04-13T04:20:02.240Z,1005.36
2017-04-13T04:20:28.340Z,1005.32
2017-04-13T04:20:54.421Z,1005.36
2017-04-13T04:21:20.529Z,1005.38
2017-04-13T04:21:46.655Z,1005.33
2017-04-13T04:22:12.760Z,1005.36
2017-04-13T04:22:38.864Z,1005.33
2017-04-13T04:23:04.945Z,1005.33
2017-04-13T04:23:31.028Z,1005.31
2017-04-13T04:23:57.111Z,1005.34
2017-04-13T04:24:23.193Z,1005.39
2017-04-13T04:24:49.274Z,1005.34
2017-04-13T04:25:15.377Z,1005.36
2017-04-13T04:25:41.462Z,1005.38
2017-04-13T04:26:07.544Z,1005.36
2017-04-13T04:26:33.625Z,1005.39
2017-04-13T04:26:59.731Z,1005.35
2017-04-13T04:27:25.882Z,1005.39
2017-04-13T04:27:52.015Z,1005.39
2017-04-13T04:28:18.097Z,1005.39
2017-04-13T04:28:44.179Z,1005.37
2017-04-13T04:29:10.262Z,1005.36
2017-04-13T04:29:36.345Z,1005.35
2017-04-13T04:30:02.425Z,1005.38
2017-04-13T04:30:28.507Z,1005.36
2017-04-13T04:30:54.612Z,1005.36
2017-04-13T04:31:20.695Z,1005.39
2017-04-13T04:31:46.817Z,1005.33
2017-04-13T04:32:12.860Z,1005.39
2017-04-13T04:32:38.938Z,1005.35
2017-04-13T04:33:05.023Z,1005.36
2017-04-13T04:33:31.206Z,1005.37
2017-04-13T04:33:57.287Z,1005.36
2017-04-13T04:34:23.372Z,1005.39
2017-04-13T04:34:49.554Z,1005.37
2017-04-13T04:35:15.636Z,1005.39
2017-04-13T04:35:41.742Z,1005.33
2017-04-13T04:36:07.824Z,1005.34
2017-04-13T04:36:33.906Z,1005.36
2017-04-13T04:36:59.989Z,1005.37
2017-04-13T04:37:26.072Z,1005.35
2017-04-13T04:37:52.225Z,1005.39
2017-04-13T04:38:18.327Z,1005.42
2017-04-13T04:38:44.409Z,1005.37
2017-04-13T04:39:10.513Z,1005.39
2017-04-13T04:39:36.641Z,1005.4
2017-04-13T04:40:02.721Z,1005.38
2017-04-13T04:40:28.804Z,1005.38
2017-04-13T04:40:54.888Z,1005.43
2017-04-13T04:41:20.992Z,1005.4
2017-04-13T04:41:47.077Z,1005.39
2017-04-13T04:42:13.181Z,1005.44
2017-04-13T04:42:39.260Z,1005.44
2017-04-13T04:43:05.341Z,1005.43
2017-04-13T04:43:31.449Z,1005.43
2017-04-13T04:43:57.530Z,1005.43
2017-04-13T04:44:23.613Z,1005.41
2017-04-13T04:44:49.693Z,1005.42
2017-04-13T04:45:15.774Z,1005.42
2017-04-13T04:45:41.881Z,1005.4
2017-04-13T04:46:07.986Z,1005.43
2017-04-13T04:46:34.069Z,1005.41
2017-04-13T04:47:00.146Z,1005.41
2017-04-13T04:47:26.231Z,1005.44
2017-04-13T04:47:52.312Z,1005.47
2017-04-13T04:48:18.437Z,1005.45
2017-04-13T04:48:44.519Z,1005.45
2017-04-13T04:49:10.601Z,1005.45
2017-04-13T04:49:36.683Z,1005.45
2017-04-13T04:50:02.763Z,1005.44
2017-04-13T04:50:28.845Z,1005.46
2017-04-13T04:50:54.949Z,1005.43
2017-04-13T04:51:21.030Z,1005.44
2017-04-13T04:51:47.112Z,1005.46
2017-04-13T04:52:13.193Z,1005.41
2017-04-13T04:52:39.277Z,1005.45
2017-04-13T04:53:05.360Z,1005.44
2017-04-13T04:53:31.447Z,1005.46
2017-04-13T04:53:57.527Z,1005.46
2017-04-13T04:54:23.609Z,1005.47
2017-04-13T04:54:49.735Z,1005.5
2017-04-13T04:55:15.864Z,1005.51
2017-04-13T04:55:41.967Z,1005.51
2017-04-13T04:56:08.049Z,1005.52
2017-04-13T04:56:34.133Z,1005.53
2017-04-13T04:57:00.212Z,1005.51
2017-04-13T04:57:26.346Z,1005.56
2017-04-13T04:57:52.426Z,1005.55
2017-04-13T04:58:18.511Z,1005.55
2017-04-13T04:58:44.617Z,1005.53
2017-04-13T04:59:10.796Z,1005.55
2017-04-13T04:59:36.880Z,1005.56
2017-04-13T05:00:02.963Z,1005.61
2017-04-13T05:00:29.064Z,1005.6
2017-04-13T05:00:55.146Z,1005.57
2017-04-13T05:01:21.229Z,1005.58
2017-04-13T05:01:47.311Z,1005.56
2017-04-13T05:02:13.390Z,1005.63
2017-04-13T05:02:39.470Z,1005.62
2017-04-13T05:03:05.551Z,1005.56
2017-04-13T05:03:31.635Z,1005.64
2017-04-13T05:03:57.717Z,1005.65
2017-04-13T05:04:23.823Z,1005.63
2017-04-13T05:04:49.903Z,1005.64
2017-04-13T05:05:15.986Z,1005.67
2017-04-13T05:05:42.068Z,1005.66
2017-04-13T05:06:08.146Z,1005.69
2017-04-13T05:06:34.250Z,1005.65
2017-04-13T05:07:00.332Z,1005.68
2017-04-13T05:07:26.414Z,1005.66
2017-04-13T05:07:52.518Z,1005.65
2017-04-13T05:08:18.623Z,1005.66
2017-04-13T05:08:44.752Z,1005.67
2017-04-13T05:09:10.862Z,1005.66
2017-04-13T05:09:36.965Z,1005.65
2017-04-13T05:10:03.049Z,1005.7
2017-04-13T05:10:29.152Z,1005.71
2017-04-13T05:10:55.234Z,1005.68
2017-04-13T05:11:21.313Z,1005.71
2017-04-13T05:11:47.396Z,1005.73
2017-04-13T05:12:13.479Z,1005.73
2017-04-13T05:12:39.560Z,1005.71
2017-04-13T05:13:05.642Z,1005.73
2017-04-13T05:13:31.724Z,1005.71
2017-04-13T05:13:57.805Z,1005.68
2017-04-13T05:14:23.987Z,1005.71
2017-04-13T05:14:50.094Z,1005.68
2017-04-13T05:15:16.180Z,1005.7
2017-04-13T05:15:42.265Z,1005.7
2017-04-13T05:16:08.341Z,1005.73
2017-04-13T05:16:34.425Z,1005.71